Alma, Alabama
Current Conditions -  °F | °C
As of 8:53 AM on Thursday 30 Oct 2014 (Local Time) from KGZH Reporting Station
Clear Clear  
Wind Chill: 59°   Ceiling: Unl
Heat Index: 59°   Visibility: 10mi
Dew Point: 49°   Wind: 5mph
Humidity: 69%   Direction: 10°N
Pressure: 30.11"   Gusts: NA
Location:  31.46°N, 87.75°W
Report Text: KGZH 301353Z AUTO 01004KT 10SM CLR 15/09 A3011 RMK AO2 SLP195 T01500094
Loading
Personal Weather Stations






























Interactive Weather Map
Tropical Storm Tracking
New forecast layout! Learn more

10-Day Weather Forecast

Advertisements
Track Severe Weather on mobile